EmailTwitter


Observations de surface / Québec / CYHU (71371)

Régions: Québec | Canada | États-Unis | Europe | France | UK | Ailleurs
Station
Affichage
Infos & localisation pour CYHU (71371) | Aide pour décoder les METARs

Observations prises le 2018-04-27 à 06H00 UTC à MONTREAL/ST HUBE, QB (CYHU)

Etat du ciel: dégagé.

Température: 7.0 Celsius

Point de rosée: 6.0 Celsius

Humidité relative: 93%

Facteur vent: 4.

Vents: Sud-ouest à 15 km/h ou 8 noeuds.

Pression au niveau moyen de la mer: 100.95 kilopascals.

Calage altimétrique: 100.95 kilopascals ou 29.81 pouces de mercure.

Visibilité horizontale: 9.00 milles terrestres ou 14.40 kilomètres.

Observation METAR:

CYHU 270600Z AUTO 22008KT 9SM CLR 07/06 A2981 RMK SLP095=